createdAt,value
2023-05-05T00:01:12.374Z,16.90
2023-05-05T00:06:07.274Z,14.82
2023-05-05T00:11:01.878Z,14.85
2023-05-05T00:15:55.345Z,17.90
2023-05-05T00:20:49.228Z,13.70
2023-05-05T00:25:42.438Z,13.38
2023-05-05T00:30:38.168Z,16.52
2023-05-05T00:35:31.381Z,15.55
2023-05-05T00:40:25.580Z,14.48
2023-05-05T00:45:20.035Z,13.98
2023-05-05T00:50:22.860Z,19.75
2023-05-05T00:55:16.144Z,15.57
2023-05-05T01:00:10.857Z,16.67
2023-05-05T01:05:05.037Z,13.70
2023-05-05T01:10:18.760Z,15.50
2023-05-05T01:15:22.476Z,12.77
2023-05-05T01:20:22.769Z,14.80
2023-05-05T01:31:05.897Z,13.70
2023-05-05T01:36:08.836Z,17.95
2023-05-05T01:41:06.800Z,11.55
2023-05-05T01:46:01.857Z,15.18
2023-05-05T01:50:56.577Z,11.93
2023-05-05T01:55:53.933Z,13.38
2023-05-05T02:00:49.108Z,13.38
2023-05-05T02:05:45.297Z,15.85
2023-05-05T02:10:41.000Z,16.23
2023-05-05T02:15:39.395Z,14.90
2023-05-05T02:20:35.765Z,18.27
2023-05-05T02:25:36.793Z,16.35
2023-05-05T02:30:33.583Z,17.08
2023-05-05T02:35:35.979Z,17.20
2023-05-05T02:40:34.359Z,20.38
2023-05-05T02:45:30.414Z,17.58
2023-05-05T02:50:24.858Z,16.60
2023-05-05T02:55:37.872Z,18.58
2023-05-05T03:00:40.425Z,15.05
2023-05-05T03:05:43.966Z,15.93
2023-05-05T03:10:47.496Z,19.42
2023-05-05T03:15:45.982Z,18.13
2023-05-05T03:20:41.805Z,18.20
2023-05-05T03:25:46.261Z,18.67
2023-05-05T03:30:47.893Z,23.00
2023-05-05T03:35:43.205Z,19.02
2023-05-05T03:40:44.150Z,21.55
2023-05-05T03:45:42.644Z,18.17
2023-05-05T03:50:36.755Z,20.05
2023-05-05T03:55:30.379Z,21.52
2023-05-05T04:00:23.749Z,23.33
2023-05-05T04:05:19.960Z,23.52
2023-05-05T04:10:13.695Z,17.23
2023-05-05T04:15:08.234Z,18.80
2023-05-05T04:20:03.735Z,19.42
2023-05-05T04:25:00.309Z,18.33
2023-05-05T04:29:54.829Z,20.92
2023-05-05T04:34:48.526Z,19.85
2023-05-05T04:39:42.723Z,17.40
2023-05-05T04:44:37.884Z,19.42
2023-05-05T04:49:31.462Z,20.65
2023-05-05T04:54:25.416Z,20.17
2023-05-05T04:59:18.694Z,18.40
2023-05-05T05:04:14.043Z,19.73
2023-05-05T05:09:09.125Z,18.88
2023-05-05T05:14:02.554Z,22.35
2023-05-05T05:18:56.110Z,15.63
2023-05-05T05:23:51.109Z,14.95
2023-05-05T05:28:44.981Z,14.70
2023-05-05T05:33:38.685Z,17.17
2023-05-05T05:38:32.698Z,16.38
2023-05-05T05:43:30.236Z,13.82
2023-05-05T05:48:28.392Z,17.75
2023-05-05T05:53:22.513Z,18.23
2023-05-05T05:58:17.176Z,20.25
2023-05-05T06:03:13.259Z,17.25
2023-05-05T06:08:08.269Z,23.23
2023-05-05T06:13:06.500Z,19.55
2023-05-05T06:18:01.780Z,21.60
2023-05-05T06:22:56.367Z,18.73
2023-05-05T06:27:50.716Z,17.17
2023-05-05T06:32:44.066Z,18.85
2023-05-05T06:37:37.223Z,21.85
2023-05-05T06:42:32.306Z,22.38
2023-05-05T06:47:26.730Z,20.27
2023-05-05T06:52:19.849Z,20.02
2023-05-05T06:57:12.932Z,18.35
2023-05-05T07:02:07.509Z,16.98
2023-05-05T07:07:01.307Z,18.15
2023-05-05T07:11:54.470Z,16.92
2023-05-05T07:16:47.599Z,15.38
2023-05-05T07:21:42.702Z,14.60
2023-05-05T07:26:35.982Z,17.48
2023-05-05T07:31:29.096Z,16.15
2023-05-05T07:36:22.443Z,16.80
2023-05-05T07:41:19.618Z,15.43
2023-05-05T07:46:13.924Z,19.40
2023-05-05T07:51:07.139Z,19.48
2023-05-05T07:56:00.233Z,15.27
2023-05-05T08:00:54.750Z,13.45
2023-05-05T08:05:49.411Z,15.25
2023-05-05T08:10:44.296Z,16.50
2023-05-05T08:15:38.024Z,13.70
2023-05-05T08:20:32.688Z,17.35
2023-05-05T08:25:26.944Z,16.70
2023-05-05T08:30:21.472Z,15.30
2023-05-05T08:35:14.839Z,16.92
2023-05-05T08:40:14.139Z,18.80
2023-05-05T08:45:09.169Z,18.10
2023-05-05T08:50:03.391Z,16.50
2023-05-05T08:55:01.522Z,15.18
2023-05-05T08:59:58.909Z,17.48
2023-05-05T09:04:53.286Z,19.15
2023-05-05T09:09:46.993Z,19.27
2023-05-05T09:14:40.397Z,22.05
2023-05-05T09:19:35.245Z,20.25
2023-05-05T09:24:28.505Z,16.13
2023-05-05T09:29:22.873Z,17.38
2023-05-05T09:34:17.360Z,18.30
2023-05-05T09:39:12.028Z,14.55
2023-05-05T09:44:05.268Z,14.43
2023-05-05T09:49:12.430Z,16.38
2023-05-05T09:54:07.438Z,16.25
2023-05-05T09:59:11.210Z,13.30
2023-05-05T10:04:04.336Z,16.63
2023-05-05T10:09:07.541Z,12.95
2023-05-05T10:14:01.031Z,16.17
2023-05-05T10:18:58.102Z,15.15
2023-05-05T10:24:01.765Z,13.48
2023-05-05T10:28:57.367Z,12.50
2023-05-05T10:33:56.438Z,15.68
2023-05-05T10:38:51.673Z,13.07
2023-05-05T10:43:48.131Z,13.70
2023-05-05T10:48:48.253Z,12.82
2023-05-05T10:58:51.296Z,14.15
2023-05-05T11:03:52.232Z,17.98
2023-05-05T11:08:47.084Z,15.00
2023-05-05T11:13:41.165Z,13.80
2023-05-05T11:18:39.449Z,11.65
2023-05-05T11:23:35.046Z,12.32
2023-05-05T11:28:31.413Z,13.82
2023-05-05T11:33:24.781Z,13.77
2023-05-05T11:38:20.240Z,13.60
2023-05-05T11:43:13.409Z,15.63
2023-05-05T11:48:27.127Z,12.57
2023-05-05T11:53:21.182Z,14.43
2023-05-05T11:58:20.379Z,12.18
2023-05-05T12:03:13.772Z,11.30
2023-05-05T12:08:08.529Z,10.25
2023-05-05T12:13:01.685Z,14.65
2023-05-05T12:17:54.879Z,11.27
2023-05-05T12:22:48.079Z,10.85
2023-05-05T12:27:52.735Z,10.52
2023-05-05T12:32:46.786Z,11.32
2023-05-05T12:37:40.305Z,11.93
2023-05-05T12:42:39.023Z,9.77
2023-05-05T12:47:35.156Z,11.52
2023-05-05T12:52:45.650Z,10.50
2023-05-05T12:57:39.957Z,11.50
2023-05-05T13:02:36.721Z,10.38
2023-05-05T13:07:30.033Z,11.13
2023-05-05T13:12:25.103Z,7.90
2023-05-05T13:17:18.656Z,8.88
2023-05-05T13:22:14.702Z,6.57
2023-05-05T13:27:08.025Z,7.55
2023-05-05T13:32:01.201Z,6.63
2023-05-05T13:36:54.362Z,7.18
2023-05-05T13:41:48.978Z,8.40
2023-05-05T13:46:42.753Z,7.18
2023-05-05T13:51:36.086Z,10.15
2023-05-05T13:56:29.989Z,8.20
2023-05-05T14:01:24.637Z,8.25
2023-05-05T14:06:17.942Z,6.78
2023-05-05T14:11:11.004Z,6.75
2023-05-05T14:16:04.200Z,9.15
2023-05-05T14:21:00.819Z,6.32
2023-05-05T14:25:55.842Z,7.97
2023-05-05T14:30:50.885Z,7.05
2023-05-05T14:35:44.224Z,7.28
2023-05-05T14:40:38.697Z,7.72
2023-05-05T14:45:32.720Z,9.00
2023-05-05T14:50:25.916Z,6.25
2023-05-05T14:55:19.273Z,5.53
2023-05-05T15:00:14.670Z,10.30
2023-05-05T15:05:08.936Z,6.75
2023-05-05T15:10:02.238Z,7.68
2023-05-05T15:14:55.527Z,11.75
2023-05-05T15:19:50.176Z,8.57
2023-05-05T15:24:43.246Z,6.68
2023-05-05T15:29:36.410Z,8.70
2023-05-05T15:34:29.640Z,9.13
2023-05-05T15:39:24.313Z,7.07
2023-05-05T15:44:17.498Z,9.23
2023-05-05T15:49:10.783Z,8.63
2023-05-05T15:54:03.976Z,8.73
2023-05-05T15:58:58.522Z,10.23
2023-05-05T16:03:51.909Z,7.90
2023-05-05T16:08:45.375Z,10.23
2023-05-05T16:13:39.267Z,10.07
2023-05-05T16:18:33.775Z,9.15
2023-05-05T16:23:26.898Z,8.68
2023-05-05T16:28:20.018Z,7.75
2023-05-05T16:33:13.126Z,13.77
2023-05-05T16:38:07.901Z,9.90
2023-05-05T16:43:01.131Z,8.50
2023-05-05T16:47:55.423Z,9.10
2023-05-05T16:52:48.734Z,9.70
2023-05-05T16:57:43.217Z,9.35
2023-05-05T17:02:36.762Z,10.68
2023-05-05T17:07:30.295Z,9.85
2023-05-05T17:12:23.722Z,12.82
2023-05-05T17:17:21.255Z,7.28
2023-05-05T17:22:14.445Z,12.93
2023-05-05T17:27:07.645Z,9.90
2023-05-05T17:32:00.807Z,9.77
2023-05-05T17:36:55.258Z,11.93
2023-05-05T17:41:48.362Z,10.00
2023-05-05T17:46:41.534Z,12.30
2023-05-05T17:51:34.650Z,13.65
2023-05-05T17:56:29.113Z,17.88
2023-05-05T18:01:22.480Z,21.65
2023-05-05T18:06:15.592Z,25.83
2023-05-05T18:11:08.767Z,23.80
2023-05-05T18:16:03.279Z,17.67
2023-05-05T18:20:56.360Z,13.70
2023-05-05T18:25:49.477Z,19.55
2023-05-05T18:30:42.642Z,18.15
2023-05-05T18:35:37.276Z,16.33
2023-05-05T18:40:32.471Z,12.90
2023-05-05T18:45:25.946Z,11.45
2023-05-05T18:50:19.161Z,18.05
2023-05-05T18:55:13.618Z,14.30
2023-05-05T19:00:07.956Z,19.55
2023-05-05T19:05:01.140Z,26.55
2023-05-05T19:09:54.387Z,42.45
2023-05-05T19:14:48.856Z,33.22
2023-05-05T19:19:41.922Z,39.58
2023-05-05T19:24:35.728Z,37.75
2023-05-05T19:29:29.043Z,27.27
2023-05-05T19:34:23.676Z,23.67
2023-05-05T19:39:16.833Z,20.05
2023-05-05T19:44:09.885Z,21.88
2023-05-05T19:49:02.936Z,20.08
2023-05-05T19:53:57.457Z,21.90
2023-05-05T19:58:57.490Z,30.52
2023-05-05T20:03:52.342Z,26.02
2023-05-05T20:08:47.571Z,25.13
2023-05-05T20:13:42.222Z,27.15
2023-05-05T20:18:35.462Z,26.17
2023-05-05T20:23:28.818Z,23.95
2023-05-05T20:28:22.586Z,30.95
2023-05-05T20:33:17.103Z,28.42
2023-05-05T20:38:10.466Z,28.08
2023-05-05T20:43:03.780Z,26.42
2023-05-05T20:47:56.847Z,26.48
2023-05-05T20:52:51.518Z,28.77
2023-05-05T20:57:44.569Z,24.48
2023-05-05T21:02:39.290Z,45.28
2023-05-05T21:07:34.203Z,26.05
2023-05-05T21:12:30.681Z,22.35
2023-05-05T21:17:23.974Z,21.98
2023-05-05T21:22:17.100Z,26.67
2023-05-05T21:27:10.330Z,24.98
2023-05-05T21:32:04.872Z,23.25
2023-05-05T21:36:58.240Z,22.17
2023-05-05T21:41:51.710Z,27.95
2023-05-05T21:46:44.880Z,25.13
2023-05-05T21:51:39.339Z,26.88
2023-05-05T21:56:32.406Z,25.02
2023-05-05T22:01:25.610Z,26.58
2023-05-05T22:06:20.528Z,29.25
2023-05-05T22:11:15.129Z,26.02
2023-05-05T22:16:08.686Z,24.10
2023-05-05T22:21:01.896Z,29.52
2023-05-05T22:25:55.363Z,24.98
2023-05-05T22:30:50.216Z,21.92
2023-05-05T22:35:43.432Z,21.58
2023-05-05T22:40:39.103Z,26.50
2023-05-05T22:45:32.190Z,22.33
2023-05-05T22:50:26.776Z,23.90
2023-05-05T22:55:20.428Z,22.98
2023-05-05T23:00:14.699Z,30.23
2023-05-05T23:05:08.590Z,28.27
2023-05-05T23:10:04.765Z,23.40
2023-05-05T23:14:57.987Z,24.65
2023-05-05T23:19:51.560Z,23.65
2023-05-05T23:24:44.944Z,20.70
2023-05-05T23:29:39.625Z,18.35
2023-05-05T23:34:32.778Z,17.85
2023-05-05T23:39:25.987Z,21.90
2023-05-05T23:44:19.179Z,19.92
2023-05-05T23:49:13.747Z,24.38
2023-05-05T23:54:07.360Z,22.45
2023-05-05T23:59:00.661Z,18.00
